This is the latest recevied weather packets stored in our database for station/object K6ALF. If no packets are shown the sender has not sent any weather packets the latest 10 day(s).
| Time | Temp. | Humidity | Pressure | Rain* | Wind** | Luminosity | Snow |
|---|---|---|---|---|---|---|---|
| 1777619722 | 18.89° C | 70% | 1011.7 hPa | 0 mm | - | - | - |
| 1777618856 | 18.89° C | 70% | 1011.6 hPa | 0 mm | - | - | - |
| 1777611623 | 22.78° C | 64% | 1011.3 hPa | 0 mm | - | - | - |
| 1777608954 | 23.89° C | 58% | 1010.9 hPa | 0 mm | - | - | - |
| 1777608020 | 24.44° C | 56% | 1010.8 hPa | 0 mm | - | - | - |
| 1777601720 | 29.44° C | 39% | 1009.9 hPa | 0 mm | - | - | - |
| 1777595420 | 28.89° C | 42% | 1010.1 hPa | 0 mm | - | - | - |
| 1777573820 | 22.22° C | 56% | 1013.6 hPa | 0 mm | - | - | - |
| 1777570222 | 20.56° C | 59% | 1013.8 hPa | 0 mm | - | - | - |
| 1777569322 | 20.56° C | 59% | 1013.9 hPa | 0 mm | - | - | - |
| 1777565720 | 19.44° C | 63% | 1014 hPa | 0 mm | - | - | - |
| 1777563922 | 19.44° C | 66% | 1014 hPa | 0 mm | - | - | - |
| 1777557655 | 14.44° C | 79% | 1014.1 hPa | 0 mm | - | - | - |
| 1777552222 | 12.78° C | 83% | 1013.6 hPa | 0 mm | - | - | - |
| 1777537821 | 16.11° C | 73% | 1014.6 hPa | 0 mm | - | - | - |
| 1777536924 | 16.11° C | 77% | 1014.6 hPa | 0 mm | - | - | - |
| 1777535122 | 16.67° C | 75% | 1014.6 hPa | 0 mm | - | - | - |
| 1777528823 | 18.89° C | 65% | 1014.3 hPa | 0 mm | - | - | - |
| 1777520722 | 21.11° C | 56% | 1013.6 hPa | 0 mm | - | - | - |
| 1777517122 | 26.11° C | 39% | 1013 hPa | 0 mm | - | - | - |
| 1777516220 | 26.67° C | 37% | 1013 hPa | 0 mm | - | - | - |
| 1777512622 | 26.67° C | 36% | 1013.3 hPa | 0 mm | - | - | - |
| 1777509021 | 26.67° C | 39% | 1013.6 hPa | 0 mm | - | - | - |
| 1777505421 | 26.11° C | 44% | 1014.2 hPa | 0 mm | - | - | - |
| 1777497353 | 23.89° C | 48% | 1015.8 hPa | 0 mm | - | - | - |
* Rain latest hour (hover to see other rain measurements)
** Current wind speed in m/s (hover to see current wind gust speed)